Time;durP1;ratioP1;P1;durP2;ratioP2;P2;SDS_P1;SDS_P2;PMS_P1;PMS_P2;Temp;Humidity;BMP_temperature;BMP_pressure;BME280_temperature;BME280_humidity;BME280_pressure;Samples;Min_cycle;Max_cycle;Signal;HPM_P1;HPM_P2
2023/01/21 00:01:21;;;;;;;2.15;1.45;;;;;;;1.55;83.85;96008.72;5096758;28;20106;-61
2023/01/21 00:03:49;;;;;;;1.63;1.20;;;;;;;1.41;84.30;96001.09;5096364;28;20165;-63
2023/01/21 00:06:16;;;;;;;1.27;1.17;;;;;;;1.43;84.52;96019.13;5096315;28;20044;-65
2023/01/21 00:08:44;;;;;;;5.65;1.33;;;;;;;1.38;84.35;96021.75;5096327;28;20482;-64
2023/01/21 00:11:13;;;;;;;2.17;1.35;;;;;;;1.22;84.79;96026.22;5096552;28;20126;-66
2023/01/21 00:13:41;;;;;;;1.37;1.27;;;;;;;1.18;85.00;96020.25;5096342;28;20044;-64
2023/01/21 00:16:12;;;;;;;2.67;1.42;;;;;;;1.14;85.51;96026.28;5096268;28;20143;-64
2023/01/21 00:18:38;;;;;;;;;;;;;;;1.10;86.99;96029.75;5096649;28;20401;-64
2023/01/21 00:21:06;;;;;;;1.60;1.38;;;;;;;0.97;87.08;96022.09;5096063;28;19926;-66
2023/01/21 00:23:33;;;;;;;1.55;1.45;;;;;;;0.94;87.42;96023.88;5096324;28;20061;-66
2023/01/21 00:26:02;;;;;;;1.13;1.02;;;;;;;0.88;87.59;96022.22;5095957;28;20131;-64
2023/01/21 00:28:29;;;;;;;1.48;1.38;;;;;;;0.88;87.05;96017.91;5095991;28;20434;-63
2023/01/21 00:30:58;;;;;;;3.63;1.40;;;;;;;0.76;87.97;96007.72;5095844;28;20273;-63
2023/01/21 00:33:27;;;;;;;3.58;1.38;;;;;;;0.74;87.99;96012.88;5095918;28;20087;-66
2023/01/21 00:35:58;;;;;;;3.80;1.70;;;;;;;0.70;88.74;96013.75;5095788;28;20475;-66
2023/01/21 00:38:25;;;;;;;1.63;1.23;;;;;;;0.74;88.51;96015.44;5095814;28;20101;-65
2023/01/21 00:40:59;;;;;;;1.75;1.55;;;;;;;0.79;89.09;96012.84;5095863;28;20040;-65
2023/01/21 00:43:31;;;;;;;3.88;1.48;;;;;;;0.90;89.44;96012.72;5095744;28;20040;-63
2023/01/21 00:46:05;;;;;;;2.55;1.90;;;;;;;0.87;89.47;96011.03;5095601;28;20117;-64
2023/01/21 00:48:35;;;;;;;2.40;1.60;;;;;;;0.93;89.64;96011.88;5095595;28;20073;-64
2023/01/21 00:51:02;;;;;;;1.90;1.47;;;;;;;1.01;88.87;96015.22;5095504;28;20052;-63
2023/01/21 00:53:31;;;;;;;1.30;1.20;;;;;;;1.06;87.61;96020.34;5095596;28;20089;-66
2023/01/21 00:56:00;;;;;;;2.45;1.52;;;;;;;1.02;87.60;96029.81;5095419;28;20401;-67
2023/01/21 00:58:27;;;;;;;1.25;1.10;;;;;;;1.04;87.62;96024.66;5095398;28;20051;-67
2023/01/21 01:01:01;;;;;;;1.80;1.52;;;;;;;1.11;87.57;96028.88;5095402;28;20086;-64
2023/01/21 01:03:28;;;;;;;1.63;1.25;;;;;;;1.08;87.40;96028.94;5094575;28;20052;-63
2023/01/21 01:06:02;;;;;;;1.67;1.48;;;;;;;1.10;86.57;96035.75;5095229;28;20101;-64
2023/01/21 01:08:29;;;;;;;1.77;1.40;;;;;;;1.10;86.38;96030.63;5095316;28;20090;-67
2023/01/21 01:10:56;;;;;;;1.77;1.25;;;;;;;1.07;86.47;96033.22;5095110;28;20113;-62
2023/01/21 01:13:23;;;;;;;1.83;1.60;;;;;;;1.08;86.49;96041.81;5095194;28;20389;-66
2023/01/21 01:15:54;;;;;;;2.42;1.90;;;;;;;1.09;86.13;96033.19;5095041;28;20127;-65
2023/01/21 01:18:21;;;;;;;1.40;1.30;;;;;;;1.12;85.39;96035.75;5095026;28;20044;-63
2023/01/21 01:20:49;;;;;;;2.75;1.50;;;;;;;1.12;85.72;96031.44;5095063;28;20079;-65
2023/01/21 01:23:17;;;;;;;1.45;1.30;;;;;;;1.10;85.66;96033.19;5094918;28;20052;-62
2023/01/21 01:25:45;;;;;;;1.45;1.35;;;;;;;1.10;85.50;96034.91;5094887;28;20055;-62
2023/01/21 01:28:12;;;;;;;1.50;1.40;;;;;;;1.10;85.92;96038.34;5094993;28;20123;-63
2023/01/21 01:30:39;;;;;;;2.65;1.30;;;;;;;1.08;85.79;96049.53;5094804;28;20501;-65
2023/01/21 01:33:06;;;;;;;1.63;1.35;;;;;;;1.09;85.69;96048.66;5094711;28;20052;-66
2023/01/21 01:35:33;;;;;;;1.38;1.27;;;;;;;1.09;85.96;96044.34;5094719;28;20084;-65
2023/01/21 01:38:07;;;;;;;2.53;1.65;;;;;;;1.08;85.98;96046.97;5094554;28;20040;-64
2023/01/21 01:40:36;;;;;;;1.70;1.25;;;;;;;1.08;85.65;96041.81;5094576;28;20054;-65
2023/01/21 01:43:03;;;;;;;1.90;1.67;;;;;;;1.09;85.09;96039.19;5094511;28;20094;-62
2023/01/21 01:45:30;;;;;;;2.13;1.40;;;;;;;0.98;85.22;96036.72;5094410;28;20105;-61
2023/01/21 01:48:05;;;;;;;1.33;1.23;;;;;;;0.97;85.85;96029.00;5094328;28;20048;-66
2023/01/21 01:50:35;;;;;;;3.83;1.58;;;;;;;0.97;85.89;96040.16;5094491;28;20048;-64
2023/01/21 01:53:02;;;;;;;2.80;1.60;;;;;;;0.92;85.73;96035.91;5094428;28;20044;-64
2023/01/21 01:55:32;;;;;;;3.60;1.65;;;;;;;0.81;86.34;96023.97;5094323;28;20506;-66
2023/01/21 01:58:03;;;;;;;2.30;1.90;;;;;;;0.83;87.46;96022.25;5094466;28;20494;-63
2023/01/21 02:00:30;;;;;;;1.30;1.20;;;;;;;0.94;86.68;96013.56;5094188;28;20360;-62
2023/01/21 02:05:44;;;;;;;1.65;1.55;;;;;;;0.84;85.47;96028.25;5094194;28;20098;-62
2023/01/21 02:08:11;;;;;;;3.78;1.80;;;;;;;0.78;85.51;96023.97;5094073;28;20067;-63
2023/01/21 02:10:38;;;;;;;6.95;1.73;;;;;;;0.77;86.21;96017.13;5094063;28;20078;-66
2023/01/21 02:13:07;;;;;;;1.92;1.70;;;;;;;0.81;86.55;96029.13;5093948;28;20048;-66
2023/01/21 02:15:41;;;;;;;3.97;1.55;;;;;;;0.78;86.01;96029.13;5093192;28;20047;-66
2023/01/21 02:18:15;;;;;;;3.83;1.60;;;;;;;0.76;86.09;96025.72;5093848;28;20044;-64
2023/01/21 02:21:08;;;;;;;1.65;1.55;;;;;;;0.80;85.91;96029.13;5093852;28;20467;-68
2023/01/21 02:23:59;;;;;;;1.60;1.50;;;;;;;0.81;85.64;96043.72;5093921;28;20044;-66
2023/01/21 02:27:04;;;;;;;3.53;1.63;;;;;;;0.75;86.02;96037.75;5093639;28;20047;-67
2023/01/21 02:30:09;;;;;;;2.63;2.05;;;;;;;0.65;86.59;96028.38;5058546;28;20126;-67
2023/01/21 02:33:04;;;;;;;5.72;2.30;;;;;;;0.69;87.07;96034.38;5069200;28;20044;-65
2023/01/21 02:35:38;;;;;;;2.65;2.17;;;;;;;0.71;86.28;96027.47;5093466;28;20052;-69
2023/01/21 02:38:12;;;;;;;4.65;2.80;;;;;;;0.72;86.47;96024.88;5093680;28;20043;-65
2023/01/21 02:40:50;;;;;;;7.20;3.10;;;;;;;0.71;86.39;96022.31;5093751;28;20048;-62
2023/01/21 02:43:30;;;;;;;3.20;2.67;;;;;;;0.74;86.34;96022.31;5093471;28;20051;-63
2023/01/21 02:46:04;;;;;;;2.58;2.35;;;;;;;0.74;86.14;96012.88;5093409;28;20070;-65
2023/01/21 02:48:39;;;;;;;4.25;2.45;;;;;;;0.70;85.74;96015.47;5093370;28;20402;-64
2023/01/21 02:51:06;;;;;;;4.45;2.20;;;;;;;0.70;85.13;96013.75;5093344;28;20147;-66
2023/01/21 02:53:35;;;;;;;2.70;2.00;;;;;;;0.66;85.24;96011.22;5093308;28;20627;-65
2023/01/21 02:56:07;;;;;;;3.13;2.40;;;;;;;0.66;85.35;96004.31;5093527;28;20048;-65
2023/01/21 02:58:39;;;;;;;3.15;2.30;;;;;;;0.60;85.13;95999.25;5093455;28;20040;-64
2023/01/21 03:01:17;;;;;;;3.97;3.58;;;;;;;0.60;85.64;96009.53;5093302;28;20083;-68
2023/01/21 03:04:03;;;;;;;3.25;2.72;;;;;;;0.56;85.33;96012.97;5093156;28;20048;-64
2023/01/21 03:06:41;;;;;;;4.60;4.15;;;;;;;0.53;85.64;96006.16;5093044;28;20056;-66
2023/01/21 03:09:18;;;;;;;5.97;2.97;;;;;;;0.46;85.99;95999.34;5093105;28;20097;-66
2023/01/21 03:11:56;;;;;;;2.28;1.90;;;;;;;0.44;85.87;95990.75;5093281;28;20420;-64
2023/01/21 03:17:22;;;;;;;3.60;2.88;;;;;;;0.38;87.19;95986.50;5093193;28;20047;-64
2023/01/21 03:19:57;;;;;;;5.63;3.00;;;;;;;0.46;87.47;95994.19;5093088;28;20412;-66
2023/01/21 03:22:29;;;;;;;3.10;2.30;;;;;;;0.47;87.26;95990.75;5093088;28;20123;-68
2023/01/21 03:24:59;;;;;;;4.32;1.92;;;;;;;0.40;87.40;95991.66;5093064;28;20048;-64
2023/01/21 03:27:28;;;;;;;2.53;2.00;;;;;;;0.40;88.82;95996.78;5096037;28;20082;-65
2023/01/21 03:29:59;;;;;;;2.30;2.10;;;;;;;0.36;88.09;95985.69;5097143;28;20134;-66
2023/01/21 03:32:29;;;;;;;2.65;1.80;;;;;;;0.32;88.54;95989.97;5097335;28;20059;-62
2023/01/21 03:34:58;;;;;;;4.43;2.10;;;;;;;0.32;88.54;96004.56;5097032;28;20048;-62
2023/01/21 03:37:31;;;;;;;5.37;3.20;;;;;;;0.32;89.35;96008.00;5096933;28;20054;-66
2023/01/21 03:40:10;;;;;;;8.63;3.63;;;;;;;0.35;89.45;95999.41;5097065;28;20351;-66
2023/01/21 03:42:37;;;;;;;5.53;2.97;;;;;;;0.39;89.42;95995.09;5096938;28;20066;-66
2023/01/21 03:45:04;;;;;;;3.85;2.63;;;;;;;0.30;89.02;96001.16;5096981;28;20056;-69
2023/01/21 03:47:34;;;;;;;7.95;2.65;;;;;;;0.25;88.16;95999.44;5096843;28;20507;-64
2023/01/21 03:50:08;;;;;;;4.40;1.90;;;;;;;0.25;88.07;96020.03;5096732;28;20131;-66
2023/01/21 03:52:38;;;;;;;4.57;2.28;;;;;;;0.23;87.82;96026.91;5096691;28;20097;-66
2023/01/21 03:55:06;;;;;;;;;;;;;;;0.15;87.82;96026.09;5097127;28;20110;-65
2023/01/21 03:57:33;;;;;;;4.82;2.42;;;;;;;0.14;88.26;96015.78;5096590;28;19924;-67
2023/01/21 04:00:00;;;;;;;2.72;2.28;;;;;;;0.14;88.29;96026.09;5096716;28;20052;-62
2023/01/21 04:02:27;;;;;;;3.13;2.10;;;;;;;0.10;88.29;96033.84;5096476;28;20521;-64
2023/01/21 04:04:54;;;;;;;2.88;2.33;;;;;;;0.14;88.34;96033.81;5096145;28;20044;-63
2023/01/21 04:07:23;;;;;;;3.22;2.33;;;;;;;0.13;88.06;96030.41;5096599;28;20143;-67
2023/01/21 04:09:50;;;;;;;4.95;2.33;;;;;;;0.10;87.67;96033.84;5096357;28;20101;-67
2023/01/21 04:12:17;;;;;;;3.00;2.20;;;;;;;0.07;87.67;96036.44;5096302;28;20094;-67
2023/01/21 04:14:44;;;;;;;4.40;2.40;;;;;;;0.04;88.20;96036.44;5096274;28;20055;-66
2023/01/21 04:17:12;;;;;;;3.60;2.63;;;;;;;0.03;88.69;96027.00;5096202;28;20423;-66
2023/01/21 04:19:39;;;;;;;7.30;2.38;;;;;;;0.06;89.06;96024.41;5096122;28;20079;-68
2023/01/21 04:22:06;;;;;;;3.78;2.08;;;;;;;-0.02;87.97;96039.03;5096431;28;20212;-69
2023/01/21 04:24:34;;;;;;;5.72;2.20;;;;;;;-0.07;88.01;96035.63;5096350;28;20125;-66
2023/01/21 04:27:01;;;;;;;7.07;2.70;;;;;;;-0.13;88.53;96037.38;5096047;28;20052;-66
2023/01/21 04:29:28;;;;;;;4.28;2.20;;;;;;;-0.11;88.60;96044.22;5095951;28;20044;-65
2023/01/21 04:31:55;;;;;;;4.05;2.22;;;;;;;-0.20;88.71;96042.53;5095849;28;20444;-68
2023/01/21 04:34:22;;;;;;;4.40;1.88;;;;;;;-0.19;89.13;96057.94;5095952;28;20135;-66
2023/01/21 04:36:50;;;;;;;9.82;2.35;;;;;;;-0.13;89.71;96059.63;5095879;28;20098;-63
2023/01/21 04:39:17;;;;;;;6.65;2.92;;;;;;;-0.08;91.06;96055.34;5094803;28;20044;-63
2023/01/21 04:41:46;;;;;;;2.35;2.08;;;;;;;0.00;91.48;96047.63;5096074;28;20075;-69
2023/01/21 04:44:13;;;;;;;11.43;2.88;;;;;;;0.11;92.51;96044.97;5095759;28;20048;-64
2023/01/21 04:46:40;;;;;;;3.53;2.65;;;;;;;0.16;92.57;96048.41;5095485;28;20143;-66
2023/01/21 04:49:07;;;;;;;3.58;2.50;;;;;;;0.25;93.15;96042.34;5095728;28;20054;-66
2023/01/21 04:51:34;;;;;;;6.00;2.20;;;;;;;0.23;91.68;96042.34;5095745;28;20478;-69
2023/01/21 04:54:01;;;;;;;6.30;2.42;;;;;;;0.21;91.01;96063.81;5095530;28;20105;-65
2023/01/21 04:56:28;;;;;;;5.65;1.83;;;;;;;0.20;90.43;96054.38;5095533;28;20051;-66
2023/01/21 04:58:57;;;;;;;5.63;2.35;;;;;;;0.19;90.38;96048.38;5095496;28;20044;-63
2023/01/21 05:01:24;;;;;;;3.83;2.38;;;;;;;0.04;90.17;96069.03;5095638;28;20048;-66
2023/01/21 05:03:51;;;;;;;7.65;2.47;;;;;;;0.06;89.95;96085.31;5095271;28;20052;-66
2023/01/21 05:06:18;;;;;;;7.13;3.80;;;;;;;-0.04;90.02;96079.31;5095341;28;20083;-69
2023/01/21 05:08:45;;;;;;;8.65;3.72;;;;;;;0.00;91.29;96073.34;5095101;28;20109;-68
2023/01/21 05:11:15;;;;;;;5.10;2.80;;;;;;;0.07;91.53;96084.44;5095192;28;20051;-66
2023/01/21 05:13:42;;;;;;;8.38;3.17;;;;;;;0.06;91.21;96095.59;5095183;28;20084;-67
2023/01/21 05:16:13;;;;;;;5.95;3.30;;;;;;;0.11;90.93;96093.84;5095159;28;20039;-66
2023/01/21 05:18:41;;;;;;;3.72;3.00;;;;;;;-0.08;91.07;96055.34;5095035;28;20048;-66
2023/01/21 05:21:09;;;;;;;5.93;2.78;;;;;;;0.16;91.21;96093.84;5094980;28;20048;-65
2023/01/21 05:23:36;;;;;;;7.93;3.70;;;;;;;0.20;91.58;96100.69;5094931;28;20048;-67
2023/01/21 05:26:04;;;;;;;6.35;3.10;;;;;;;0.24;91.69;96095.50;5094811;28;20052;-66
2023/01/21 05:28:31;;;;;;;11.35;2.72;;;;;;;0.29;91.18;96085.22;5095181;28;20048;-66
2023/01/21 05:31:01;;;;;;;10.35;3.10;;;;;;;0.35;90.98;96103.19;5094846;28;20410;-66
2023/01/21 05:33:32;;;;;;;10.63;3.53;;;;;;;0.44;91.74;96104.00;5094766;28;20071;-64
2023/01/21 05:36:00;;;;;;;5.45;2.65;;;;;;;0.43;91.85;96100.59;5094780;28;20052;-66
2023/01/21 05:38:27;;;;;;;4.65;2.78;;;;;;;0.44;91.95;96098.84;5094637;28;20048;-64
2023/01/21 05:41:02;;;;;;;6.30;2.50;;;;;;;0.50;92.58;96111.69;5094528;28;20048;-67
2023/01/21 05:43:30;;;;;;;8.65;2.88;;;;;;;0.59;93.00;96118.53;5094485;28;20083;-65
2023/01/21 05:45:57;;;;;;;6.85;2.70;;;;;;;0.60;92.84;96105.63;5094441;28;20493;-66
2023/01/21 05:48:25;;;;;;;11.77;3.00;;;;;;;0.52;90.93;96116.84;5094520;28;20051;-65
2023/01/21 05:50:53;;;;;;;6.03;2.45;;;;;;;0.51;90.45;96118.56;5094531;28;20044;-67
2023/01/21 05:53:21;;;;;;;5.78;2.85;;;;;;;0.49;90.39;96123.69;5094502;28;20098;-67
2023/01/21 05:55:51;;;;;;;13.68;2.40;;;;;;;0.43;90.17;96122.91;5094243;28;20079;-64
2023/01/21 05:58:19;;;;;;;5.57;2.58;;;;;;;0.42;89.56;96123.75;5094501;28;20055;-69
2023/01/21 06:00:47;;;;;;;4.93;1.88;;;;;;;0.46;89.41;96131.47;5094165;28;20044;-66
2023/01/21 06:03:15;;;;;;;7.57;2.60;;;;;;;0.42;88.99;96119.44;5094114;28;20113;-64
2023/01/21 06:05:42;;;;;;;4.07;1.92;;;;;;;0.48;88.89;96139.19;5094204;28;20084;-65
2023/01/21 06:08:12;;;;;;;4.20;2.10;;;;;;;0.46;88.63;96140.91;5094048;28;20048;-62
2023/01/21 06:10:40;;;;;;;35.80;24.52;;;;;;;0.46;88.83;96133.19;5094048;28;20076;-65
2023/01/21 06:13:07;;;;;;;12.35;7.82;;;;;;;0.48;89.44;96134.88;5094064;28;20048;-69
2023/01/21 06:15:34;;;;;;;13.65;6.32;;;;;;;0.59;89.43;96139.13;5093953;28;20048;-63
2023/01/21 06:18:02;;;;;;;10.50;5.43;;;;;;;0.66;89.28;96148.50;5093832;28;20084;-65
2023/01/21 06:20:30;;;;;;;9.15;4.22;;;;;;;0.80;89.65;96163.03;5093772;28;20666;-67
2023/01/21 06:22:58;;;;;;;8.60;4.13;;;;;;;1.61;90.98;96163.38;5093924;28;20044;-66
2023/01/21 06:25:26;;;;;;;6.38;3.22;;;;;;;2.90;84.51;96168.00;5093737;28;20443;-66
2023/01/21 06:27:56;;;;;;;5.50;2.58;;;;;;;4.31;77.59;96164.03;5093756;28;20040;-66
2023/01/21 06:30:24;;;;;;;4.53;2.15;;;;;;;5.65;72.12;96162.88;5093681;28;20040;-64
2023/01/21 06:32:52;;;;;;;3.05;1.70;;;;;;;6.89;66.38;96168.31;5093586;28;20062;-67
2023/01/21 06:35:20;;;;;;;4.30;1.73;;;;;;;8.10;61.73;96166.28;5093609;28;20563;-66
2023/01/21 06:37:47;;;;;;;1.88;1.20;;;;;;;9.31;57.03;96165.47;5093736;28;20097;-69
2023/01/21 06:40:15;;;;;;;4.82;2.38;;;;;;;10.35;54.38;96169.06;5093866;28;20052;-62
2023/01/21 06:42:46;;;;;;;4.40;1.67;;;;;;;11.35;50.44;96171.69;5093481;28;20044;-66
2023/01/21 06:45:13;;;;;;;;;;;;;;;11.89;46.93;96176.09;5094137;28;20044;-63
2023/01/21 06:47:42;;;;;;;2.60;0.90;;;;;;;12.42;47.93;96170.91;5093321;28;20362;-69
2023/01/21 06:50:11;;;;;;;3.70;1.00;;;;;;;13.22;46.44;96177.28;5093389;28;20044;-65
2023/01/21 06:52:42;;;;;;;7.32;0.93;;;;;;;13.78;44.08;96168.97;5093323;28;20547;-66
2023/01/21 06:55:10;;;;;;;1.63;0.98;;;;;;;14.31;42.95;96175.59;5093387;28;20051;-64
2023/01/21 06:57:39;;;;;;;4.38;1.48;;;;;;;14.72;41.55;96169.66;5093242;28;20048;-64
2023/01/21 07:00:09;;;;;;;8.55;1.88;;;;;;;15.35;39.69;96176.44;5093125;28;20047;-69
2023/01/21 07:02:37;;;;;;;;;;;;;;;15.80;37.72;96178.84;5093043;28;20050;-63
2023/01/21 07:05:05;;;;;;;6.72;2.05;;;;;;;16.32;36.93;96181.66;5093215;28;19920;-66
2023/01/21 07:07:57;;;;;;;5.05;1.75;;;;;;;16.45;36.85;96170.25;5093468;28;20077;-65
2023/01/21 07:10:25;;;;;;;3.88;2.00;;;;;;;16.35;37.18;96170.06;5092935;28;20143;-63
2023/01/21 07:12:52;;;;;;;2.72;2.00;;;;;;;17.06;36.90;96180.19;5093205;28;20446;-63
2023/01/21 07:15:21;;;;;;;4.10;2.05;;;;;;;17.80;35.67;96174.13;5093060;28;20136;-69
2023/01/21 07:17:48;;;;;;;6.32;2.08;;;;;;;18.11;34.32;96176.31;5093120;28;20105;-66
2023/01/21 07:20:17;;;;;;;3.35;1.92;;;;;;;17.80;35.15;96184.69;5093218;28;20097;-65
2023/01/21 07:22:48;;;;;;;2.25;1.83;;;;;;;16.72;37.19;96177.25;5093301;28;20079;-68
2023/01/21 07:25:17;;;;;;;5.10;3.97;;;;;;;15.35;37.86;96174.63;5092518;28;20044;-66
2023/01/21 07:27:44;;;;;;;5.38;3.72;;;;;;;13.86;41.02;96177.28;5092983;28;20048;-65
2023/01/21 07:30:16;;;;;;;6.85;5.13;;;;;;;12.64;43.69;96175.88;5092972;28;20513;-67
2023/01/21 07:32:46;;;;;;;8.52;6.60;;;;;;;11.43;45.90;96174.78;5092984;28;20052;-66
2023/01/21 07:35:15;;;;;;;4.47;4.07;;;;;;;10.40;47.92;96174.13;5093106;28;20052;-65
2023/01/21 07:37:44;;;;;;;4.55;2.35;;;;;;;9.27;50.93;96182.16;5093058;28;20048;-63
2023/01/21 07:40:13;;;;;;;27.52;17.63;;;;;;;8.28;55.06;96174.38;5092984;28;20059;-65
2023/01/21 07:42:41;;;;;;;11.07;7.72;;;;;;;7.57;58.45;96168.84;5092991;28;20052;-63
2023/01/21 07:45:09;;;;;;;14.88;9.73;;;;;;;7.14;60.48;96173.66;5092889;28;20040;-67
2023/01/21 07:47:37;;;;;;;15.35;8.40;;;;;;;6.67;61.98;96167.19;5093029;28;20501;-62
2023/01/21 07:50:08;;;;;;;6.32;4.47;;;;;;;6.19;63.03;96178.88;5092767;28;20539;-62
2023/01/21 07:52:36;;;;;;;12.98;10.00;;;;;;;6.04;66.83;96180.97;5092990;28;20048;-61
2023/01/21 07:55:03;;;;;;;7.07;5.47;;;;;;;5.99;67.61;96171.59;5092815;28;20428;-65
2023/01/21 07:57:32;;;;;;;9.70;6.15;;;;;;;6.14;68.58;96191.97;5092844;28;20409;-64
2023/01/21 08:00:00;;;;;;;9.15;6.93;;;;;;;6.51;69.51;96186.69;5092721;28;20055;-66
2023/01/21 08:02:27;;;;;;;9.55;5.10;;;;;;;7.59;69.55;96176.63;5092894;28;20477;-69
2023/01/21 08:04:54;;;;;;;5.22;3.70;;;;;;;10.15;63.72;96176.94;5092525;28;20055;-66
2023/01/21 08:07:24;;;;;;;8.43;3.83;;;;;;;11.58;56.10;96181.06;5092615;28;20044;-63
2023/01/21 08:09:51;;;;;;;3.50;2.80;;;;;;;12.41;55.54;96186.72;5092643;28;20386;-65
2023/01/21 08:12:18;;;;;;;5.72;2.78;;;;;;;14.32;50.80;96190.44;5092633;28;20044;-64
2023/01/21 08:14:46;;;;;;;5.32;2.55;;;;;;;16.30;45.89;96191.47;5095578;28;20055;-64
2023/01/21 08:17:13;;;;;;;4.30;2.83;;;;;;;17.62;43.54;96188.66;5096129;28;20059;-67
2023/01/21 08:19:40;;;;;;;4.07;3.15;;;;;;;18.05;41.84;96182.88;5096447;28;20052;-64
2023/01/21 08:22:08;;;;;;;2.70;2.40;;;;;;;18.55;39.67;96178.38;5096119;28;20048;-66
2023/01/21 08:24:37;;;;;;;4.15;2.72;;;;;;;19.04;40.05;96181.69;5096044;28;20051;-68
2023/01/21 08:27:04;;;;;;;3.55;2.50;;;;;;;19.74;38.56;96183.31;5095889;28;20044;-68
2023/01/21 08:29:31;;;;;;;4.45;2.30;;;;;;;19.51;38.68;96193.97;5096068;28;20068;-67
2023/01/21 08:31:59;;;;;;;7.55;2.55;;;;;;;18.96;39.16;96194.69;5095944;28;20490;-66
2023/01/21 08:34:31;;;;;;;5.05;3.35;;;;;;;19.17;39.47;96191.34;5096005;28;20386;-65
2023/01/21 08:36:58;;;;;;;4.30;3.30;;;;;;;19.47;39.78;96194.34;5095730;28;20048;-64
2023/01/21 08:39:25;;;;;;;7.88;3.22;;;;;;;19.08;41.09;96198.22;5095801;28;20048;-67
2023/01/21 08:41:54;;;;;;;4.75;2.92;;;;;;;18.26;41.78;96187.56;5095666;28;20056;-65
2023/01/21 08:44:21;;;;;;;4.70;2.92;;;;;;;17.00;44.99;96184.13;5095932;28;20127;-67
2023/01/21 08:46:49;;;;;;;5.65;1.75;;;;;;;16.42;44.21;96174.81;5095581;28;20132;-66
2023/01/21 08:49:17;;;;;;;4.72;1.95;;;;;;;15.16;48.33;96162.63;5095744;28;20048;-67
2023/01/21 08:51:44;;;;;;;8.85;2.40;;;;;;;14.85;49.43;96164.53;5095638;28;20044;-66
2023/01/21 08:54:11;;;;;;;6.45;1.65;;;;;;;14.45;50.81;96151.13;5095519;28;20127;-68
2023/01/21 08:56:39;;;;;;;7.68;1.73;;;;;;;14.55;52.61;96154.91;5095421;28;20056;-68
2023/01/21 08:59:08;;;;;;;6.97;1.48;;;;;;;14.17;51.61;96164.13;5095497;28;20083;-64
2023/01/21 09:01:39;;;;;;;6.78;1.50;;;;;;;13.63;52.81;96153.13;5095373;28;20051;-67
2023/01/21 09:04:08;;;;;;;6.72;1.70;;;;;;;13.13;54.59;96149.72;5094996;28;20040;-65
2023/01/21 09:06:35;;;;;;;8.77;1.98;;;;;;;12.91;58.79;96160.56;5095235;28;20044;-63
2023/01/21 09:09:02;;;;;;;6.28;1.42;;;;;;;12.66;56.60;96172.31;5095258;28;20386;-64
2023/01/21 09:11:30;;;;;;;8.95;1.67;;;;;;;12.40;59.72;96166.69;5095287;28;20135;-68
2023/01/21 09:14:02;;;;;;;4.43;1.58;;;;;;;12.15;60.96;96157.41;5095126;28;20106;-63
2023/01/21 09:16:32;;;;;;;10.05;1.80;;;;;;;11.70;60.23;96156.06;5095017;28;20044;-65
2023/01/21 09:19:00;;;;;;;6.38;1.90;;;;;;;11.23;62.68;96142.53;5095078;28;20055;-64
2023/01/21 09:21:28;;;;;;;6.43;1.70;;;;;;;11.02;64.43;96140.94;5094959;28;20051;-65
2023/01/21 09:23:55;;;;;;;8.15;1.70;;;;;;;10.84;65.49;96139.06;5094722;28;20052;-65
2023/01/21 09:26:26;;;;;;;4.75;1.65;;;;;;;10.66;65.57;96134.69;5094859;28;20052;-66
2023/01/21 09:28:55;;;;;;;9.38;1.83;;;;;;;10.50;68.48;96140.59;5094859;28;20101;-67
2023/01/21 09:31:24;;;;;;;8.13;1.90;;;;;;;10.49;66.94;96141.50;5094899;28;20581;-67
2023/01/21 09:33:55;;;;;;;4.72;1.30;;;;;;;10.31;67.54;96137.91;5094701;28;20044;-66
2023/01/21 09:36:25;;;;;;;6.25;2.00;;;;;;;10.42;69.45;96140.06;5094810;28;20040;-66
2023/01/21 09:38:54;;;;;;;8.35;1.60;;;;;;;10.10;66.71;96140.53;5094613;28;20055;-67
2023/01/21 09:41:29;;;;;;;11.32;1.58;;;;;;;9.99;66.74;96143.59;5094685;28;20048;-67
2023/01/21 09:44:12;;;;;;;8.60;1.67;;;;;;;9.98;69.33;96134.06;5094559;28;20051;-65
2023/01/21 09:46:44;;;;;;;5.80;1.80;;;;;;;10.16;68.68;96132.44;5094316;28;20126;-64
2023/01/21 09:49:19;;;;;;;9.95;2.25;;;;;;;10.15;69.97;96135.97;5094598;28;20055;-64
2023/01/21 09:52:02;;;;;;;5.85;1.98;;;;;;;9.91;71.23;96135.22;5094354;28;20044;-68
2023/01/21 09:54:33;;;;;;;6.68;2.17;;;;;;;9.63;72.70;96136.38;5094415;28;20056;-62
2023/01/21 09:57:18;;;;;;;5.72;1.75;;;;;;;9.72;73.52;96146.44;5094595;28;20055;-60
2023/01/21 09:59:57;;;;;;;13.05;2.22;;;;;;;9.59;74.01;96139.09;5094613;28;20085;-68
2023/01/21 10:02:32;;;;;;;8.00;1.95;;;;;;;9.27;74.91;96127.34;5094311;28;20059;-65
2023/01/21 10:05:27;;;;;;;10.82;2.13;;;;;;;9.01;77.95;96144.84;5094159;28;20261;-65
2023/01/21 10:08:02;;;;;;;13.50;2.97;;;;;;;8.90;79.29;96121.78;5093967;28;20056;-65
2023/01/21 10:10:40;;;;;;;14.45;2.67;;;;;;;8.84;80.54;96130.69;5094165;28;20044;-68
2023/01/21 10:13:30;;;;;;;14.23;3.03;;;;;;;8.85;81.27;96117.59;5094029;28;20134;-62
2023/01/21 10:16:05;;;;;;;9.30;2.72;;;;;;;8.80;80.72;96122.16;5093951;28;20052;-64
2023/01/21 10:18:38;;;;;;;8.98;3.03;;;;;;;8.73;81.86;96131.06;5093860;28;20051;-67
2023/01/21 10:21:16;;;;;;;8.73;2.30;;;;;;;8.74;82.42;96127.59;5093986;28;20117;-66
2023/01/21 10:23:49;;;;;;;13.90;3.13;;;;;;;8.69;82.63;96134.72;5093850;28;20075;-65
2023/01/21 10:26:18;;;;;;;7.50;2.83;;;;;;;8.50;83.24;96124.06;5093651;28;20044;-65
2023/01/21 10:28:56;;;;;;;10.75;2.92;;;;;;;8.38;84.72;96130.59;5093496;28;20044;-67
2023/01/21 10:31:28;;;;;;;15.20;3.42;;;;;;;8.32;85.48;96123.84;5093762;28;20137;-64
2023/01/21 10:33:56;;;;;;;9.40;2.97;;;;;;;8.29;86.47;96123.94;5093693;28;20066;-64
2023/01/21 10:36:50;;;;;;;11.98;3.47;;;;;;;8.34;86.89;96111.63;5092875;28;20083;-62
2023/01/21 10:39:33;;;;;;;17.48;3.15;;;;;;;8.39;86.36;96109.69;5093652;28;20070;-66
2023/01/21 10:42:19;;;;;;;14.45;3.53;;;;;;;8.46;86.54;96113.75;5093591;28;20055;-65
2023/01/21 10:44:53;;;;;;;13.13;3.45;;;;;;;8.57;86.49;96107.34;5092714;28;20138;-67
2023/01/21 10:47:33;;;;;;;8.27;2.95;;;;;;;8.67;86.16;96106.09;5093328;28;20048;-68
2023/01/21 10:50:11;;;;;;;10.43;3.07;;;;;;;8.75;85.53;96105.81;5093469;28;20040;-67
2023/01/21 10:52:46;;;;;;;14.77;2.90;;;;;;;8.71;86.13;96107.69;5093433;28;20687;-64
2023/01/21 10:55:25;;;;;;;13.55;3.38;;;;;;;8.63;86.48;96098.44;5092627;28;20055;-63
2023/01/21 10:57:58;;;;;;;15.93;4.07;;;;;;;8.69;87.10;96108.63;5092130;28;20044;-68
2023/01/21 11:00:29;;;;;;;10.65;3.08;;;;;;;8.64;87.86;96111.41;5090039;28;20128;-67
2023/01/21 11:02:58;;;;;;;;;;;;;;;8.54;88.03;96102.22;5092497;28;20059;-69
2023/01/21 11:05:27;;;;;;;7.15;3.13;;;;;;;8.43;89.63;96106.03;5092730;28;20369;-64
2023/01/21 11:07:58;;;;;;;13.43;3.90;;;;;;;8.42;89.75;96106.97;5092864;28;20510;-68
2023/01/21 11:10:34;;;;;;;17.13;3.72;;;;;;;8.40;90.22;96102.72;5092150;28;20067;-61
2023/01/21 11:13:02;;;;;;;13.25;3.17;;;;;;;8.39;90.26;96108.81;5092737;28;20059;-68
2023/01/21 11:15:45;;;;;;;10.23;2.95;;;;;;;8.44;89.70;96107.78;5092864;28;20051;-68
2023/01/21 11:18:31;;;;;;;12.15;3.47;;;;;;;8.50;90.44;96096.25;5092873;28;20551;-67
2023/01/21 11:21:06;;;;;;;14.48;3.05;;;;;;;8.47;89.19;96093.78;5091208;28;20044;-66
2023/01/21 11:23:41;;;;;;;9.32;3.20;;;;;;;8.52;90.15;96093.59;5093258;28;20643;-64
2023/01/21 11:26:22;;;;;;;9.88;2.92;;;;;;;8.52;90.63;96091.00;5092994;28;20059;-67
2023/01/21 11:29:06;;;;;;;9.60;3.15;;;;;;;8.54;91.16;96078.75;5092881;28;20055;-65
2023/01/21 11:31:35;;;;;;;9.38;2.67;;;;;;;8.57;90.93;96094.28;5092911;28;20051;-66
2023/01/21 11:34:12;;;;;;;2.85;2.30;;;;;;;8.58;91.91;96080.38;5093000;28;20052;-65
2023/01/21 11:36:54;;;;;;;10.38;2.90;;;;;;;8.62;91.90;96075.88;5092938;28;20108;-69
2023/01/21 11:39:26;;;;;;;8.60;2.55;;;;;;;8.63;92.16;96075.81;5092888;28;20109;-66
2023/01/21 11:41:54;;;;;;;14.95;3.05;;;;;;;8.74;92.63;96077.16;5092838;28;20083;-67
2023/01/21 11:44:23;;;;;;;9.45;3.10;;;;;;;8.81;92.46;96092.53;5092828;28;20066;-69
2023/01/21 11:46:53;;;;;;;11.07;3.58;;;;;;;8.88;93.98;96090.53;5093093;28;20044;-67
2023/01/21 11:49:31;;;;;;;7.90;2.80;;;;;;;8.98;93.81;96091.88;5096784;28;20496;-67
2023/01/21 11:52:17;;;;;;;12.20;2.80;;;;;;;8.97;93.30;96084.97;5096928;28;20054;-65
2023/01/21 11:54:50;;;;;;;12.23;2.80;;;;;;;8.92;91.64;96079.09;5096728;28;20048;-62
2023/01/21 11:57:47;;;;;;;6.10;3.22;;;;;;;9.01;92.39;96080.50;5096818;28;20059;-66
2023/01/21 12:00:26;;;;;;;12.23;2.88;;;;;;;9.06;93.70;96090.75;5096604;28;20512;-66
2023/01/21 12:03:00;;;;;;;13.90;3.10;;;;;;;9.06;92.93;96086.34;5095863;28;20051;-65